Scarboro, Georgia
Current Conditions -  °F | °C
As of 8:55 PM on Sunday 21 Dec 2014 (Local Time) from KJYL Reporting Station
Drizzle Drizzle  
Wind Chill: 41°   Ceiling: 900
Heat Index: 46°   Visibility: 5mi
Dew Point: 46°   Wind: 8mph
Humidity: 100%   Direction: 70°ENE
Pressure: 30.14"   Gusts: NA
Location:  32.7727°N, 81.9794°W
Report Text: KJYL 220155Z AUTO 07007KT 5SM DZ SCT006 BKN009 OVC023 08/08 A3014 RMK AO2 T00760076
Loading
Personal Weather Stations






























Interactive Weather Map New forecast layout! Learn more

10-Day Weather Forecast

Advertisements
Track Severe Weather on mobile